createdAt,value
2024-04-16T00:02:37.091Z,19.9
2024-04-16T00:12:37.312Z,19.9
2024-04-16T00:22:37.510Z,19.9
2024-04-16T00:32:37.720Z,19.9
2024-04-16T00:42:37.839Z,19.9
2024-04-16T01:02:38.232Z,19.9
2024-04-16T01:12:38.393Z,19.9
2024-04-16T01:22:38.638Z,19.9
2024-04-16T01:32:38.834Z,19.9
2024-04-16T01:42:38.968Z,19.9
2024-04-16T01:52:39.221Z,19.9
2024-04-16T02:12:39.513Z,19.9
2024-04-16T02:22:39.767Z,19.9
2024-04-16T02:32:39.910Z,19.9
2024-04-16T02:42:40.068Z,19.9
2024-04-16T02:52:40.343Z,19.9
2024-04-16T03:02:40.504Z,19.9
2024-04-16T03:22:40.826Z,19.8
2024-04-16T03:32:41.097Z,19.8
2024-04-16T03:42:41.178Z,19.8
2024-04-16T03:52:41.404Z,19.8
2024-04-16T04:02:41.575Z,19.8
2024-04-16T04:12:41.764Z,19.8
2024-04-16T04:22:43.117Z,19.8
2024-04-16T04:32:42.143Z,19.8
2024-04-16T04:42:42.302Z,19.8
2024-04-16T04:52:42.490Z,19.8
2024-04-16T05:02:42.707Z,19.8
2024-04-16T05:12:42.858Z,19.8
2024-04-16T05:22:43.104Z,19.8
2024-04-16T05:32:43.309Z,19.6
2024-04-16T05:42:43.426Z,18.5
2024-04-16T05:52:43.644Z,18.1
2024-04-16T06:02:43.840Z,18
2024-04-16T06:12:44.031Z,18
2024-04-16T06:22:44.208Z,18
2024-04-16T06:32:44.424Z,18.1
2024-04-16T06:42:44.529Z,17.8
2024-04-16T07:02:44.964Z,17.5
2024-04-16T07:12:45.109Z,17
2024-04-16T07:22:45.297Z,16.9
2024-04-16T07:32:45.577Z,16.8
2024-04-16T07:42:45.632Z,16.9
2024-04-16T07:52:45.854Z,17.1
2024-04-16T08:02:46.043Z,17.1
2024-04-16T08:12:46.224Z,17.4
2024-04-16T08:22:46.398Z,17.6
2024-04-16T08:32:46.747Z,17.6
2024-04-16T08:42:46.754Z,17.6
2024-04-16T08:52:46.971Z,17.5
2024-04-16T09:02:47.179Z,17.5
2024-04-16T09:12:47.319Z,18.3
2024-04-16T09:22:47.548Z,19
2024-04-16T09:32:47.777Z,19.5
2024-04-16T09:42:47.872Z,19.8
2024-04-16T09:52:48.102Z,19.9
2024-04-16T10:02:48.334Z,20.2
2024-04-16T10:12:48.428Z,20.3
2024-04-16T10:22:50.081Z,20.4
2024-04-16T10:42:48.985Z,20.3
2024-04-16T10:52:49.224Z,20.3
2024-04-16T11:02:49.387Z,20.4
2024-04-16T11:12:49.543Z,20.6
2024-04-16T11:22:49.789Z,20.2
2024-04-16T11:32:50.003Z,19.7
2024-04-16T11:52:50.323Z,19.5
2024-04-16T12:02:50.472Z,19.7
2024-04-16T12:12:50.689Z,20.6
2024-04-16T12:32:57.934Z,21.6
2024-04-16T12:52:51.434Z,21.6
2024-04-16T13:02:54.220Z,21.6
2024-04-16T13:32:52.204Z,21.8
2024-04-16T13:42:52.341Z,21.9
2024-04-16T14:02:52.733Z,21.9
2024-04-16T14:12:52.896Z,22.1
2024-04-16T14:22:53.111Z,22
2024-04-16T14:42:53.489Z,21.9
2024-04-16T14:52:53.684Z,22.2
2024-04-16T15:02:53.838Z,22.6
2024-04-16T15:32:54.517Z,22.7
2024-04-16T15:42:54.587Z,22.6
2024-04-16T15:52:54.783Z,22.6
2024-04-16T16:02:55.005Z,22.5
2024-04-16T16:12:57.201Z,22.5
2024-04-16T16:22:55.345Z,22.4
2024-04-16T16:32:55.609Z,22.3
2024-04-16T16:42:55.721Z,22.1
2024-04-16T16:52:55.982Z,21.9
2024-04-16T17:02:56.127Z,21.7
2024-04-16T17:12:56.291Z,21.6
2024-04-16T17:22:56.443Z,21.5
2024-04-16T17:32:56.706Z,21.4
2024-04-16T17:42:56.820Z,21.3
2024-04-16T17:52:57.001Z,21.3
2024-04-16T18:02:57.256Z,21.2
2024-04-16T18:12:57.394Z,21.1
2024-04-16T18:22:57.595Z,21
2024-04-16T18:32:57.846Z,21
2024-04-16T18:42:57.969Z,20.9
2024-04-16T18:52:58.170Z,20.9
2024-04-16T19:02:58.334Z,20.8
2024-04-16T19:12:58.500Z,20.8
2024-04-16T19:22:58.702Z,20.7
2024-04-16T19:32:58.918Z,20.7
2024-04-16T19:42:59.050Z,20.7
2024-04-16T19:52:59.276Z,20.6
2024-04-16T20:02:59.473Z,20.6
2024-04-16T20:12:59.675Z,20.6
2024-04-16T20:22:59.833Z,20.6
2024-04-16T20:33:00.036Z,20.6
2024-04-16T20:43:00.173Z,20.6
2024-04-16T20:53:00.438Z,20.5
2024-04-16T21:03:00.766Z,20.5
2024-04-16T21:13:00.724Z,20.5
2024-04-16T21:23:00.910Z,20.4
2024-04-16T21:33:01.227Z,20.4
2024-04-16T21:43:01.283Z,20.3
2024-04-16T21:53:01.509Z,20.3
2024-04-16T22:03:01.750Z,20.3
2024-04-16T22:13:01.891Z,20.2
2024-04-16T22:23:02.054Z,20.2
2024-04-16T22:33:02.316Z,20.2
2024-04-16T22:43:02.403Z,20.2
2024-04-16T22:53:02.589Z,20.2
2024-04-16T23:03:02.857Z,20.2
2024-04-16T23:13:02.960Z,20.1
2024-04-16T23:23:03.201Z,20.1
2024-04-16T23:33:03.404Z,20.1
2024-04-16T23:53:03.732Z,20
